Time;durP1;ratioP1;P1;durP2;ratioP2;P2;SDS_P1;SDS_P2;PMS_P1;PMS_P2;Temp;Humidity;BMP_temperature;BMP_pressure;BME280_temperature;BME280_humidity;BME280_pressure;Samples;Min_cycle;Max_cycle;Signal;HPM_P1;HPM_P2
2023/11/14 00:02:39;;;;;;;22.50;6.25;;;;;;;;;;12883870;22;20022;-68
2023/11/14 00:07:36;;;;;;;21.90;7.20;;;;;;;;;;12886202;22;20019;-71
2023/11/14 00:12:32;;;;;;;23.90;6.85;;;;;;;;;;12890799;22;20033;-70
2023/11/14 00:17:28;;;;;;;27.95;6.97;;;;;;;;;;12890989;22;20581;-71
2023/11/14 00:22:25;;;;;;;21.65;7.05;;;;;;;;;;12891632;22;20399;-70
2023/11/14 00:27:22;;;;;;;32.88;8.07;;;;;;;;;;12892450;22;20517;-70
2023/11/14 00:32:18;;;;;;;23.58;7.07;;;;;;;;;;12891774;22;20027;-69
2023/11/14 00:37:15;;;;;;;22.77;7.53;;;;;;;;;;12891396;22;20018;-69
2023/11/14 00:42:12;;;;;;;23.05;7.30;;;;;;;;;;12891028;22;20018;-68
2023/11/14 00:47:10;;;;;;;27.13;7.40;;;;;;;;;;12885664;22;20766;-69
2023/11/14 00:52:06;;;;;;;21.05;7.80;;;;;;;;;;12892171;22;20111;-69
2023/11/14 00:57:03;;;;;;;23.25;6.63;;;;;;;;;;12891809;22;20026;-71
2023/11/14 01:01:59;;;;;;;20.33;6.65;;;;;;;;;;12889941;22;20532;-69
2023/11/14 01:06:55;;;;;;;22.55;7.63;;;;;;;;;;12891560;22;20023;-69
2023/11/14 01:11:52;;;;;;;27.00;7.07;;;;;;;;;;12890983;22;20026;-70
2023/11/14 01:16:48;;;;;;;30.58;7.13;;;;;;;;;;12891817;22;20079;-70
2023/11/14 01:21:46;;;;;;;23.63;7.28;;;;;;;;;;12889040;22;20027;-71
2023/11/14 01:26:42;;;;;;;31.17;9.00;;;;;;;;;;12887734;22;20026;-68
2023/11/14 01:31:39;;;;;;;30.00;6.93;;;;;;;;;;12887637;22;20056;-68
2023/11/14 01:36:37;;;;;;;24.58;7.85;;;;;;;;;;12888188;22;20486;-68
2023/11/14 01:41:34;;;;;;;31.45;7.93;;;;;;;;;;12885982;22;20033;-68
2023/11/14 01:46:31;;;;;;;26.50;6.65;;;;;;;;;;12887597;22;20031;-70
2023/11/14 01:51:27;;;;;;;21.77;6.82;;;;;;;;;;12880993;22;20026;-69
2023/11/14 01:56:24;;;;;;;20.95;6.07;;;;;;;;;;12881959;22;20031;-68
2023/11/14 02:01:21;;;;;;;18.65;6.28;;;;;;;;;;12885983;22;20031;-69
2023/11/14 02:06:17;;;;;;;28.95;7.95;;;;;;;;;;12884605;22;20372;-67
2023/11/14 02:11:16;;;;;;;22.98;6.50;;;;;;;;;;12885733;22;20076;-69
2023/11/14 02:16:12;;;;;;;17.50;6.20;;;;;;;;;;12886048;22;20023;-67
2023/11/14 02:21:11;;;;;;;19.70;6.05;;;;;;;;;;12885844;22;20031;-69
2023/11/14 02:26:08;;;;;;;20.30;5.93;;;;;;;;;;12887583;22;20031;-69
2023/11/14 02:31:04;;;;;;;26.15;6.45;;;;;;;;;;12884894;22;20054;-69
2023/11/14 02:36:01;;;;;;;24.73;6.30;;;;;;;;;;12886253;22;20030;-69
2023/11/14 02:40:57;;;;;;;18.77;5.53;;;;;;;;;;12883381;22;20115;-69
2023/11/14 02:45:53;;;;;;;17.67;5.60;;;;;;;;;;12886702;22;20022;-69
2023/11/14 02:50:52;;;;;;;17.05;5.93;;;;;;;;;;12880693;22;20022;-69
2023/11/14 02:55:49;;;;;;;20.08;5.88;;;;;;;;;;12886811;22;20057;-68
2023/11/14 03:00:48;;;;;;;21.77;6.13;;;;;;;;;;12884772;22;20030;-69
2023/11/14 03:05:45;;;;;;;24.17;5.80;;;;;;;;;;12885837;22;20022;-70
2023/11/14 03:10:43;;;;;;;15.38;5.25;;;;;;;;;;12885648;22;20023;-71
2023/11/14 03:15:40;;;;;;;19.42;5.18;;;;;;;;;;12885997;22;20022;-70
2023/11/14 03:20:37;;;;;;;23.65;5.03;;;;;;;;;;12885189;22;20497;-70
2023/11/14 03:25:33;;;;;;;26.33;5.82;;;;;;;;;;12884992;22;20022;-70
2023/11/14 03:30:30;;;;;;;21.33;6.32;;;;;;;;;;12885461;22;20030;-69
2023/11/14 03:35:27;;;;;;;19.42;5.70;;;;;;;;;;12885838;22;20018;-70
2023/11/14 03:40:23;;;;;;;29.67;6.47;;;;;;;;;;12884946;22;20053;-70
2023/11/14 03:45:19;;;;;;;30.20;5.97;;;;;;;;;;12885402;22;20023;-69
2023/11/14 03:50:15;;;;;;;20.95;4.85;;;;;;;;;;12884743;22;20080;-67
2023/11/14 03:55:12;;;;;;;17.52;5.05;;;;;;;;;;12879195;22;20014;-68
2023/11/14 04:00:11;;;;;;;26.42;6.32;;;;;;;;;;12856424;22;20099;-68
2023/11/14 04:05:08;;;;;;;20.25;5.38;;;;;;;;;;12884201;22;20015;-68
2023/11/14 04:10:07;;;;;;;25.77;5.18;;;;;;;;;;12883567;22;20023;-68
2023/11/14 04:15:04;;;;;;;19.58;4.97;;;;;;;;;;12884476;22;20046;-71
2023/11/14 04:20:00;;;;;;;26.88;5.20;;;;;;;;;;12882249;22;20019;-71
2023/11/14 04:24:58;;;;;;;17.05;5.28;;;;;;;;;;12884920;22;20440;-69
2023/11/14 04:29:54;;;;;;;22.38;5.22;;;;;;;;;;12882925;22;20325;-70
2023/11/14 04:34:51;;;;;;;14.70;5.05;;;;;;;;;;12880281;22;20050;-70
2023/11/14 04:39:47;;;;;;;19.55;6.00;;;;;;;;;;12883718;22;20019;-69
2023/11/14 04:44:43;;;;;;;24.02;5.60;;;;;;;;;;12884325;22;20023;-70
2023/11/14 04:49:42;;;;;;;24.77;5.40;;;;;;;;;;12873392;22;20019;-70
2023/11/14 04:54:39;;;;;;;19.45;5.53;;;;;;;;;;12879175;22;20043;-70
2023/11/14 04:59:35;;;;;;;15.50;5.05;;;;;;;;;;12878190;22;20464;-70
2023/11/14 05:04:31;;;;;;;19.92;5.95;;;;;;;;;;12887258;22;20113;-71
2023/11/14 05:09:28;;;;;;;20.55;6.60;;;;;;;;;;12886441;22;20027;-70
2023/11/14 05:14:24;;;;;;;19.48;5.90;;;;;;;;;;12887016;22;20033;-70
2023/11/14 05:19:21;;;;;;;13.80;5.00;;;;;;;;;;12880810;22;20030;-71
2023/11/14 05:24:17;;;;;;;22.38;6.07;;;;;;;;;;12882117;22;20030;-71
2023/11/14 05:29:13;;;;;;;20.50;6.70;;;;;;;;;;12881557;22;20023;-71
2023/11/14 05:34:10;;;;;;;28.13;6.57;;;;;;;;;;12878859;22;20033;-71
2023/11/14 05:39:07;;;;;;;20.83;5.32;;;;;;;;;;12850312;22;20033;-70
2023/11/14 05:44:04;;;;;;;18.23;5.03;;;;;;;;;;12885446;22;20019;-70
2023/11/14 05:49:01;;;;;;;20.75;5.32;;;;;;;;;;12883679;22;20061;-70
2023/11/14 05:53:57;;;;;;;20.83;5.25;;;;;;;;;;12883724;22;20106;-70
2023/11/14 05:58:54;;;;;;;13.02;3.55;;;;;;;;;;12851410;22;20467;-71
2023/11/14 06:03:50;;;;;;;9.98;3.97;;;;;;;;;;12879536;22;20034;-70
2023/11/14 06:08:47;;;;;;;9.38;4.03;;;;;;;;;;12881224;22;20026;-71
2023/11/14 06:13:45;;;;;;;9.70;4.35;;;;;;;;;;12884381;22;20115;-71
2023/11/14 06:18:43;;;;;;;13.77;4.00;;;;;;;;;;12882627;22;20027;-71
2023/11/14 06:23:40;;;;;;;8.32;3.70;;;;;;;;;;12885909;22;20423;-71
2023/11/14 06:28:36;;;;;;;10.73;3.95;;;;;;;;;;12880541;22;20019;-71
2023/11/14 06:33:32;;;;;;;9.63;3.97;;;;;;;;;;12881607;22;20471;-71
2023/11/14 06:38:29;;;;;;;13.25;5.10;;;;;;;;;;12881614;22;20047;-70
2023/11/14 06:43:29;;;;;;;12.93;4.88;;;;;;;;;;12884213;22;20015;-71
2023/11/14 06:48:25;;;;;;;17.92;4.63;;;;;;;;;;12885738;22;20025;-71
2023/11/14 06:53:21;;;;;;;15.48;4.90;;;;;;;;;;12885137;22;20018;-71
2023/11/14 06:58:18;;;;;;;14.93;4.45;;;;;;;;;;12884851;22;20018;-71
2023/11/14 07:03:14;;;;;;;24.80;4.97;;;;;;;;;;12884665;22;20091;-71
2023/11/14 07:08:10;;;;;;;17.95;5.20;;;;;;;;;;12885305;22;20018;-71
2023/11/14 07:13:07;;;;;;;19.20;4.72;;;;;;;;;;12883265;22;20068;-71
2023/11/14 07:18:08;;;;;;;20.60;4.90;;;;;;;;;;12884010;22;20023;-71
2023/11/14 07:23:04;;;;;;;17.85;5.70;;;;;;;;;;12883578;22;20031;-70
2023/11/14 07:28:02;;;;;;;16.27;5.65;;;;;;;;;;12884898;22;20020;-70
2023/11/14 07:32:59;;;;;;;15.95;5.60;;;;;;;;;;12883798;22;20022;-71
2023/11/14 07:37:55;;;;;;;21.67;5.70;;;;;;;;;;12884240;22;20100;-71
2023/11/14 07:42:51;;;;;;;21.17;6.43;;;;;;;;;;12884111;22;20027;-71
2023/11/14 07:47:48;;;;;;;22.60;6.13;;;;;;;;;;12885014;22;20022;-71
2023/11/14 07:52:44;;;;;;;25.77;7.00;;;;;;;;;;12884043;22;20050;-70
2023/11/14 07:57:40;;;;;;;22.05;7.10;;;;;;;;;;12884611;22;20529;-71
2023/11/14 08:02:37;;;;;;;14.70;5.47;;;;;;;;;;12883420;22;20026;-71
2023/11/14 08:07:34;;;;;;;19.35;6.28;;;;;;;;;;12884224;22;20034;-71
2023/11/14 08:12:31;;;;;;;21.27;6.32;;;;;;;;;;12882939;22;20105;-71
2023/11/14 08:17:27;;;;;;;26.27;7.22;;;;;;;;;;12882625;22;20045;-71
2023/11/14 08:22:24;;;;;;;25.17;7.28;;;;;;;;;;12881429;22;20025;-71
2023/11/14 08:27:20;;;;;;;19.42;6.03;;;;;;;;;;12881200;22;20076;-71
2023/11/14 08:32:18;;;;;;;18.80;6.75;;;;;;;;;;12883719;22;20054;-71
2023/11/14 08:37:14;;;;;;;16.35;5.25;;;;;;;;;;12888385;22;20094;-71
2023/11/14 08:42:17;;;;;;;23.63;6.80;;;;;;;;;;12886492;22;20034;-71
2023/11/14 08:47:14;;;;;;;14.95;6.05;;;;;;;;;;12887558;22;20406;-72
2023/11/14 08:52:10;;;;;;;18.95;5.28;;;;;;;;;;12886411;22;20045;-72
2023/11/14 08:57:07;;;;;;;17.23;5.93;;;;;;;;;;12887505;22;20723;-72
2023/11/14 09:02:03;;;;;;;18.80;6.15;;;;;;;;;;12858985;22;20042;-71
2023/11/14 09:07:00;;;;;;;20.63;5.38;;;;;;;;;;12886488;22;20026;-71
2023/11/14 09:11:57;;;;;;;17.15;5.20;;;;;;;;;;12887302;22;20491;-72
2023/11/14 09:16:56;;;;;;;11.75;5.10;;;;;;;;;;12860933;22;20034;-72
2023/11/14 09:21:53;;;;;;;12.63;4.70;;;;;;;;;;12885704;22;20030;-71
2023/11/14 09:26:49;;;;;;;15.00;4.80;;;;;;;;;;12887168;22;20539;-72
2023/11/14 09:31:45;;;;;;;13.63;4.88;;;;;;;;;;12887028;22;20027;-72
2023/11/14 09:36:43;;;;;;;18.73;5.38;;;;;;;;;;12887239;22;20069;-72
2023/11/14 09:41:40;;;;;;;13.25;5.30;;;;;;;;;;12886406;22;20087;-72
2023/11/14 09:46:37;;;;;;;18.67;5.85;;;;;;;;;;12887236;22;20019;-72
2023/11/14 09:51:35;;;;;;;24.10;5.22;;;;;;;;;;12886509;22;20375;-72
2023/11/14 09:56:31;;;;;;;22.63;5.60;;;;;;;;;;12886676;22;20369;-72
2023/11/14 10:01:27;;;;;;;16.08;6.05;;;;;;;;;;12885921;22;20076;-71
2023/11/14 10:06:25;;;;;;;20.13;7.05;;;;;;;;;;12885742;22;20058;-72
2023/11/14 10:11:22;;;;;;;18.83;5.82;;;;;;;;;;12885089;22;20034;-72
2023/11/14 10:16:19;;;;;;;16.13;4.93;;;;;;;;;;12884797;22;20106;-72
2023/11/14 10:21:26;;;;;;;22.23;6.13;;;;;;;;;;12884856;22;20022;-73
2023/11/14 10:26:24;;;;;;;17.48;5.70;;;;;;;;;;12884454;22;20034;-72
2023/11/14 10:31:33;;;;;;;16.92;4.93;;;;;;;;;;12883413;22;20026;-71
2023/11/14 10:36:43;;;;;;;10.40;4.82;;;;;;;;;;12883456;22;20026;-71
2023/11/14 10:41:40;;;;;;;12.90;5.80;;;;;;;;;;12885469;22;20031;-72
2023/11/14 10:46:36;;;;;;;19.95;5.57;;;;;;;;;;12885333;22;20087;-71
2023/11/14 10:51:38;;;;;;;19.13;5.35;;;;;;;;;;12883702;22;20106;-71
2023/11/14 10:56:36;;;;;;;15.27;5.13;;;;;;;;;;12856003;22;20023;-71
2023/11/14 11:01:45;;;;;;;13.05;4.90;;;;;;;;;;12882172;22;20092;-72
2023/11/14 11:06:43;;;;;;;9.23;4.47;;;;;;;;;;12883984;22;20030;-71
2023/11/14 11:11:50;;;;;;;15.00;5.13;;;;;;;;;;12883422;22;20403;-71
2023/11/14 11:16:47;;;;;;;17.52;5.10;;;;;;;;;;12883871;22;20030;-71
2023/11/14 11:22:06;;;;;;;19.65;4.97;;;;;;;;;;12881736;22;20110;-71
2023/11/14 11:27:05;;;;;;;19.23;4.90;;;;;;;;;;12880984;22;20061;-72
2023/11/14 11:32:20;;;;;;;17.05;4.65;;;;;;;;;;12883373;22;20026;-71
2023/11/14 11:37:35;;;;;;;14.38;5.75;;;;;;;;;;12882265;22;20031;-70
2023/11/14 11:42:32;;;;;;;16.30;4.68;;;;;;;;;;12879837;22;20030;-71
2023/11/14 11:47:33;;;;;;;14.55;5.63;;;;;;;;;;12879335;22;20023;-71
2023/11/14 11:52:29;;;;;;;19.48;5.82;;;;;;;;;;12878666;22;20038;-70
2023/11/14 11:57:31;;;;;;;20.05;5.88;;;;;;;;;;12884781;22;20418;-71
2023/11/14 12:02:29;;;;;;;17.98;5.88;;;;;;;;;;12883178;22;20476;-70
2023/11/14 12:07:26;;;;;;;17.85;5.82;;;;;;;;;;12882575;22;20076;-71
2023/11/14 12:12:22;;;;;;;18.65;5.00;;;;;;;;;;12882836;22;20033;-71
2023/11/14 12:17:19;;;;;;;14.30;4.60;;;;;;;;;;12874200;22;20026;-70
2023/11/14 12:22:15;;;;;;;16.65;5.85;;;;;;;;;;12873078;22;20047;-70
2023/11/14 12:27:11;;;;;;;18.92;5.10;;;;;;;;;;12881520;22;20379;-70
2023/11/14 12:32:11;;;;;;;14.98;4.75;;;;;;;;;;12882255;22;20027;-69
2023/11/14 12:37:08;;;;;;;17.25;5.63;;;;;;;;;;12882241;22;20410;-70
2023/11/14 12:42:05;;;;;;;12.95;5.22;;;;;;;;;;12881078;22;20341;-72
2023/11/14 12:47:02;;;;;;;19.25;5.95;;;;;;;;;;12882553;22;20026;-72
2023/11/14 12:52:01;;;;;;;21.58;5.70;;;;;;;;;;12880506;22;20101;-71
2023/11/14 12:56:57;;;;;;;17.02;5.63;;;;;;;;;;12882997;22;20035;-72
2023/11/14 13:01:55;;;;;;;14.45;6.18;;;;;;;;;;12882463;22;20406;-70
2023/11/14 13:06:54;;;;;;;16.45;6.65;;;;;;;;;;12876950;22;20076;-70
2023/11/14 13:11:50;;;;;;;11.05;5.88;;;;;;;;;;12879833;22;20526;-71
2023/11/14 13:16:47;;;;;;;12.27;6.00;;;;;;;;;;12883175;22;20490;-71
2023/11/14 13:21:43;;;;;;;16.30;7.43;;;;;;;;;;12883283;22;20031;-71
2023/11/14 13:26:40;;;;;;;20.50;6.97;;;;;;;;;;12885405;22;20057;-71
2023/11/14 13:31:36;;;;;;;14.23;6.65;;;;;;;;;;12882080;22;20105;-71
2023/11/14 13:36:33;;;;;;;15.18;6.70;;;;;;;;;;12883088;22;20128;-71
2023/11/14 13:41:30;;;;;;;18.48;6.95;;;;;;;;;;12885350;22;20029;-71
2023/11/14 13:46:41;;;;;;;14.88;6.15;;;;;;;;;;12860995;22;20033;-71
2023/11/14 13:51:39;;;;;;;11.48;6.72;;;;;;;;;;12856652;22;20472;-72
2023/11/14 13:56:35;;;;;;;9.13;5.95;;;;;;;;;;12883677;22;20371;-71
2023/11/14 14:01:33;;;;;;;14.98;6.35;;;;;;;;;;12884024;22;20031;-71
2023/11/14 14:06:30;;;;;;;17.17;6.05;;;;;;;;;;12881403;22;20126;-71
2023/11/14 14:11:26;;;;;;;11.45;4.85;;;;;;;;;;12884840;22;20030;-71
2023/11/14 14:16:23;;;;;;;10.50;5.43;;;;;;;;;;12885017;22;20029;-71
2023/11/14 14:21:19;;;;;;;16.60;4.93;;;;;;;;;;12880488;22;20387;-70
2023/11/14 14:26:16;;;;;;;12.00;4.72;;;;;;;;;;12885355;22;20105;-71
2023/11/14 14:31:18;;;;;;;11.45;4.65;;;;;;;;;;12883246;22;20031;-71
2023/11/14 14:36:15;;;;;;;8.77;5.22;;;;;;;;;;12883949;22;20053;-71
2023/11/14 14:41:12;;;;;;;8.68;4.93;;;;;;;;;;12884220;22;20029;-71
2023/11/14 14:46:11;;;;;;;11.63;4.90;;;;;;;;;;12884026;22;20915;-70
2023/11/14 14:51:07;;;;;;;9.57;4.60;;;;;;;;;;12882288;22;20027;-71
2023/11/14 14:56:04;;;;;;;8.95;4.68;;;;;;;;;;12857904;22;20472;-71
2023/11/14 15:01:01;;;;;;;6.18;4.57;;;;;;;;;;12875136;22;20764;-71
2023/11/14 15:05:59;;;;;;;10.52;4.60;;;;;;;;;;12881880;22;20341;-70
2023/11/14 15:10:56;;;;;;;9.18;4.95;;;;;;;;;;12883076;22;20023;-70
2023/11/14 15:15:53;;;;;;;8.23;4.72;;;;;;;;;;12883712;22;20419;-72
2023/11/14 15:20:49;;;;;;;7.97;3.70;;;;;;;;;;12882816;22;20054;-72
2023/11/14 15:25:47;;;;;;;9.55;4.70;;;;;;;;;;12884482;22;20046;-71
2023/11/14 15:30:44;;;;;;;9.70;4.13;;;;;;;;;;12882974;22;20026;-71
2023/11/14 15:35:41;;;;;;;11.13;4.22;;;;;;;;;;12885297;22;20022;-71
2023/11/14 15:40:37;;;;;;;8.25;3.92;;;;;;;;;;12879298;22;20470;-72
2023/11/14 15:45:33;;;;;;;12.43;4.25;;;;;;;;;;12884915;22;20486;-71
2023/11/14 15:50:30;;;;;;;6.72;4.40;;;;;;;;;;12885332;22;20080;-72
2023/11/14 15:55:26;;;;;;;14.88;4.78;;;;;;;;;;12883938;22;20027;-70
2023/11/14 16:00:23;;;;;;;9.38;4.30;;;;;;;;;;12882776;22;20057;-71
2023/11/14 16:05:19;;;;;;;6.53;3.67;;;;;;;;;;12878427;22;20019;-70
2023/11/14 16:10:15;;;;;;;10.93;4.75;;;;;;;;;;12882995;22;20026;-71
2023/11/14 16:15:12;;;;;;;7.45;4.60;;;;;;;;;;12882861;22;20378;-70
2023/11/14 16:20:09;;;;;;;9.98;4.63;;;;;;;;;;12881269;22;20019;-70
2023/11/14 16:25:05;;;;;;;13.68;4.53;;;;;;;;;;12878329;22;20019;-71
2023/11/14 16:30:04;;;;;;;15.30;4.72;;;;;;;;;;12876708;22;20019;-71
2023/11/14 16:35:03;;;;;;;16.10;5.13;;;;;;;;;;12883035;22;20026;-71
2023/11/14 16:39:59;;;;;;;12.48;4.80;;;;;;;;;;12881826;22;20093;-70
2023/11/14 16:44:55;;;;;;;9.85;5.10;;;;;;;;;;12880142;22;20015;-70
2023/11/14 16:49:52;;;;;;;13.48;5.57;;;;;;;;;;12880249;22;20076;-70
2023/11/14 16:54:48;;;;;;;12.65;5.43;;;;;;;;;;12885529;22;20034;-69
2023/11/14 16:59:45;;;;;;;9.43;5.28;;;;;;;;;;12884566;22;20076;-70
2023/11/14 17:04:41;;;;;;;11.57;5.35;;;;;;;;;;12882064;22;20475;-70
2023/11/14 17:09:39;;;;;;;7.72;4.90;;;;;;;;;;12878848;22;20023;-70
2023/11/14 17:14:35;;;;;;;9.90;5.13;;;;;;;;;;12882909;22;20023;-69
2023/11/14 17:19:31;;;;;;;10.93;4.97;;;;;;;;;;12881914;22;20023;-69
2023/11/14 17:24:28;;;;;;;7.90;5.18;;;;;;;;;;12880447;22;20022;-70
2023/11/14 17:29:24;;;;;;;7.47;4.80;;;;;;;;;;12881180;22;20033;-70
2023/11/14 17:34:21;;;;;;;9.32;4.50;;;;;;;;;;12882690;22;20022;-70
2023/11/14 17:39:18;;;;;;;11.80;5.85;;;;;;;;;;12883825;22;20033;-70
2023/11/14 17:44:48;;;;;;;8.65;5.25;;;;;;;;;;12813005;22;20023;-69
2023/11/14 17:49:45;;;;;;;10.30;4.88;;;;;;;;;;12822272;22;20033;-71
2023/11/14 17:54:42;;;;;;;14.15;5.80;;;;;;;;;;12886579;22;20069;-69
2023/11/14 17:59:39;;;;;;;11.75;5.40;;;;;;;;;;12875312;22;20026;-71
2023/11/14 18:04:35;;;;;;;12.20;4.93;;;;;;;;;;12883250;22;20034;-71
2023/11/14 18:09:32;;;;;;;13.15;5.70;;;;;;;;;;12880582;22;20027;-71
2023/11/14 18:14:28;;;;;;;11.18;5.35;;;;;;;;;;12877375;22;20030;-71
2023/11/14 18:19:25;;;;;;;8.18;5.65;;;;;;;;;;12884254;22;20084;-71
2023/11/14 18:24:22;;;;;;;13.65;5.80;;;;;;;;;;12884977;22;20034;-70
2023/11/14 18:29:18;;;;;;;8.50;5.05;;;;;;;;;;12880205;22;20023;-71
2023/11/14 18:34:15;;;;;;;11.65;5.78;;;;;;;;;;12883668;22;20027;-71
2023/11/14 18:39:11;;;;;;;10.68;5.90;;;;;;;;;;12855667;22;20056;-70
2023/11/14 18:44:08;;;;;;;10.30;5.80;;;;;;;;;;12855661;22;20114;-70
2023/11/14 18:49:05;;;;;;;10.95;5.75;;;;;;;;;;12879169;22;20525;-71
2023/11/14 18:54:01;;;;;;;20.65;8.00;;;;;;;;;;12880590;22;20034;-72
2023/11/14 18:58:58;;;;;;;15.43;6.45;;;;;;;;;;12882249;22;20037;-71
2023/11/14 19:03:54;;;;;;;7.93;5.38;;;;;;;;;;12869204;22;20657;-72
2023/11/14 19:08:50;;;;;;;15.82;5.50;;;;;;;;;;12857439;22;20027;-71
2023/11/14 19:13:47;;;;;;;11.02;5.93;;;;;;;;;;12884745;22;20341;-71
2023/11/14 19:18:58;;;;;;;10.23;5.55;;;;;;;;;;12882930;22;20026;-71
2023/11/14 19:23:54;;;;;;;9.30;5.20;;;;;;;;;;12883749;22;20034;-71
2023/11/14 19:28:51;;;;;;;8.15;5.38;;;;;;;;;;12883935;22;20463;-71
2023/11/14 19:33:47;;;;;;;9.82;5.53;;;;;;;;;;12884423;22;20033;-72
2023/11/14 19:38:44;;;;;;;14.50;5.85;;;;;;;;;;12882774;22;20088;-71
2023/11/14 19:43:41;;;;;;;13.02;5.85;;;;;;;;;;12879978;22;20019;-72
2023/11/14 19:48:38;;;;;;;14.00;5.53;;;;;;;;;;12879335;22;20035;-71
2023/11/14 19:53:34;;;;;;;12.13;5.45;;;;;;;;;;12881174;22;20022;-71
2023/11/14 19:58:31;;;;;;;11.65;5.30;;;;;;;;;;12877178;22;20094;-71
2023/11/14 20:03:27;;;;;;;16.30;4.75;;;;;;;;;;12873515;22;20026;-71
2023/11/14 20:08:24;;;;;;;17.52;5.88;;;;;;;;;;12879885;22;20110;-72
2023/11/14 20:13:36;;;;;;;;;;;;;;;;;;;;;
2023/11/14 20:18:40;;;;;;;16.10;5.10;;;;;;;;;;12818132;22;20460;-71
2023/11/14 20:23:36;;;;;;;12.60;6.53;;;;;;;;;;12866480;22;20019;-72
2023/11/14 20:28:33;;;;;;;13.45;5.93;;;;;;;;;;12884944;22;20026;-71
2023/11/14 20:33:30;;;;;;;7.75;5.05;;;;;;;;;;12879480;22;20069;-71
2023/11/14 20:38:26;;;;;;;12.60;6.13;;;;;;;;;;12886813;22;20034;-71
2023/11/14 20:43:22;;;;;;;11.77;5.55;;;;;;;;;;12886665;22;20089;-71
2023/11/14 20:48:22;;;;;;;9.55;5.47;;;;;;;;;;12885856;22;20026;-71
2023/11/14 20:53:18;;;;;;;28.50;13.10;;;;;;;;;;12886678;22;20050;-71
2023/11/14 20:58:15;;;;;;;12.55;6.13;;;;;;;;;;12884778;22;20022;-70
2023/11/14 21:03:11;;;;;;;13.95;5.57;;;;;;;;;;12871598;22;20019;-68
2023/11/14 21:08:08;;;;;;;8.38;5.38;;;;;;;;;;12885755;22;20023;-68
2023/11/14 21:13:04;;;;;;;10.23;4.93;;;;;;;;;;12885025;22;20030;-67
2023/11/14 21:18:06;;;;;;;11.95;5.38;;;;;;;;;;12885884;22;20559;-68
2023/11/14 21:23:03;;;;;;;12.35;6.65;;;;;;;;;;12885137;22;20687;-68
2023/11/14 21:27:59;;;;;;;11.60;5.90;;;;;;;;;;12885021;22;20552;-69
2023/11/14 21:32:56;;;;;;;7.18;4.95;;;;;;;;;;12885956;22;20072;-68
2023/11/14 21:37:52;;;;;;;16.80;6.05;;;;;;;;;;12879974;22;20109;-69
2023/11/14 21:42:49;;;;;;;12.85;6.18;;;;;;;;;;12886233;22;20536;-69
2023/11/14 21:47:45;;;;;;;8.63;6.10;;;;;;;;;;12886580;22;20015;-69
2023/11/14 21:52:42;;;;;;;11.50;6.65;;;;;;;;;;12886130;22;20465;-68
2023/11/14 21:57:38;;;;;;;16.42;7.18;;;;;;;;;;12886339;22;20041;-70
2023/11/14 22:02:38;;;;;;;10.95;7.05;;;;;;;;;;12887080;22;20019;-70
2023/11/14 22:07:35;;;;;;;8.38;6.90;;;;;;;;;;12886404;22;20029;-68
2023/11/14 22:12:31;;;;;;;7.85;6.43;;;;;;;;;;12880398;22;20099;-68
2023/11/14 22:17:28;;;;;;;8.15;6.57;;;;;;;;;;12887241;22;20368;-69
2023/11/14 22:22:25;;;;;;;10.77;6.70;;;;;;;;;;12886117;22;20514;-68
2023/11/14 22:27:21;;;;;;;11.00;5.93;;;;;;;;;;12886695;22;20399;-69
2023/11/14 22:32:17;;;;;;;7.20;4.90;;;;;;;;;;12886301;22;20368;-70
2023/11/14 22:37:14;;;;;;;5.57;4.97;;;;;;;;;;12887321;22;20098;-70
2023/11/14 22:42:10;;;;;;;6.00;4.93;;;;;;;;;;12886892;22;20019;-68
2023/11/14 22:47:07;;;;;;;5.93;5.00;;;;;;;;;;12886852;22;20019;-67
2023/11/14 22:52:05;;;;;;;9.32;5.10;;;;;;;;;;12852552;22;20065;-68
2023/11/14 22:57:02;;;;;;;6.72;5.65;;;;;;;;;;12885834;22;20027;-69
2023/11/14 23:01:58;;;;;;;6.25;5.30;;;;;;;;;;12885204;22;20015;-68
2023/11/14 23:06:55;;;;;;;7.63;5.40;;;;;;;;;;12886465;22;20052;-69
2023/11/14 23:11:51;;;;;;;8.00;5.32;;;;;;;;;;12880202;22;20420;-68
2023/11/14 23:16:48;;;;;;;5.32;4.80;;;;;;;;;;12886285;22;20018;-69
2023/11/14 23:21:45;;;;;;;5.53;4.88;;;;;;;;;;12885101;22;20026;-69
2023/11/14 23:26:52;;;;;;;5.78;4.80;;;;;;;;;;12885721;22;20065;-68
2023/11/14 23:31:49;;;;;;;5.50;4.47;;;;;;;;;;12885583;22;20035;-68
2023/11/14 23:36:45;;;;;;;4.47;4.07;;;;;;;;;;12885567;22;20446;-68
2023/11/14 23:41:41;;;;;;;6.22;4.35;;;;;;;;;;12884726;22;20430;-68
2023/11/14 23:46:38;;;;;;;5.25;4.15;;;;;;;;;;12886020;22;20713;-68
2023/11/14 23:51:34;;;;;;;4.80;3.97;;;;;;;;;;12884175;22;20080;-67
2023/11/14 23:56:31;;;;;;;5.47;3.75;;;;;;;;;;12886135;22;20068;-68
